Estación Meteorológica Peña el Pijo (Robertgarden) [ 05/30/17 13:04:46 CEST ]

Fecha Hora Presion(HPa) Temp (°C) Humedad % Rocio (°C) Viento ( m/s) Direccion Lluvia 1Hora(mm) Lluvia 24H(mm) LLuvia Total(mm)
2017-Apr-21 01:01:37 1014.600 6.6 72 1.9         1357.67
2017-Apr-21 02:01:46 1014.300 5.1 72 0.5         1357.67
2017-Apr-21 03:04:10 1013.700 4.1 74 -0.1         1357.67
2017-Apr-21 04:02:00 1013.200 3.5 78 0.0         1357.67
2017-Apr-21 05:01:47 1012.800 3.8 79 0.5         1357.67
2017-Apr-21 06:01:37 1012.800 3.6 80 0.5         1357.67
2017-Apr-21 07:01:51 1012.900 3.2 81 0.3         1357.67
2017-Apr-21 08:01:35 1013.400 2.8 82 0.0         1357.67
2017-Apr-21 09:01:40 1014.100 6.8 79 3.4         1357.67
2017-Apr-21 10:01:55 1014.300 8.6 61 1.5 0.9 WSW     1357.67
2017-Apr-21 11:01:45 1014.500 11.1 54 2.1         1357.67
2017-Apr-21 12:01:56 1015.000 10.8 52 1.3         1357.67
2017-Apr-21 13:01:49 1014.900 11.8 50 1.7 2.7 S     1357.67
2017-Apr-21 14:01:43 1014.700 13.6 45 1.8         1357.67
2017-Apr-21 15:01:45 1014.300 14.5 37 -0.1 1.1 E     1357.67
2017-Apr-21 16:01:50 1014.100 15.3 36 0.2         1357.67
2017-Apr-21 17:02:06 1014.300 14.9 35 -0.5 4.2 SSW     1357.67
2017-Apr-21 18:02:01 1014.100 14.1 37 -0.5         1357.67
2017-Apr-21 19:01:51 1014.300 13.0 37 -1.5 2.9 E     1357.67
2017-Apr-21 20:02:05 1014.600 10.3 47 -0.6         1357.67
2017-Apr-21 21:01:43 1015.100 8.5 57 0.4 0.6 S     1357.67
2017-Apr-21 22:01:44 1015.700 7.2 67 1.5         1357.67
2017-Apr-21 23:01:53 1016.300 6.9 70 1.8         1357.67

Temperatura Máxima:15°    Temperatura Mínima:
Presión Máxima:1016.300 Hpa    Presión Mínima:1012.800 Hpa


Volver